createdAt,value
2022-09-28T00:00:45.207Z,6.47
2022-09-28T00:03:14.944Z,7.68
2022-09-28T00:05:45.493Z,7.43
2022-09-28T00:08:12.460Z,7.07
2022-09-28T00:10:39.265Z,7.30
2022-09-28T00:13:06.298Z,7.30
2022-09-28T00:15:33.200Z,7.20
2022-09-28T00:18:01.524Z,7.70
2022-09-28T00:20:28.388Z,7.80
2022-09-28T00:22:55.451Z,7.38
2022-09-28T00:25:23.421Z,7.45
2022-09-28T00:27:50.945Z,8.15
2022-09-28T00:30:17.860Z,8.05
2022-09-28T00:32:44.692Z,6.88
2022-09-28T00:35:16.829Z,7.07
2022-09-28T00:37:46.540Z,8.68
2022-09-28T00:40:13.377Z,7.63
2022-09-28T00:42:40.248Z,7.38
2022-09-28T00:45:12.878Z,7.30
2022-09-28T00:47:55.680Z,6.90
2022-09-28T00:50:29.150Z,7.20
2022-09-28T00:53:03.211Z,7.25
2022-09-28T00:55:35.681Z,7.30
2022-09-28T00:58:05.492Z,7.72
2022-09-28T01:00:32.609Z,7.80
2022-09-28T01:02:59.619Z,7.20
2022-09-28T01:05:30.864Z,7.43
2022-09-28T01:07:59.306Z,8.02
2022-09-28T01:10:33.460Z,7.38
2022-09-28T01:13:06.376Z,7.20
2022-09-28T01:15:45.842Z,8.05
2022-09-28T01:18:19.808Z,7.70
2022-09-28T01:20:56.162Z,8.27
2022-09-28T01:23:48.611Z,7.95
2022-09-28T01:26:47.379Z,7.78
2022-09-28T01:29:22.503Z,6.75
2022-09-28T01:32:02.020Z,7.80
2022-09-28T01:34:37.450Z,7.80
2022-09-28T01:37:12.224Z,7.97
2022-09-28T01:39:47.870Z,7.90
2022-09-28T01:42:21.866Z,7.85
2022-09-28T01:44:51.835Z,7.82
2022-09-28T01:47:24.026Z,7.63
2022-09-28T01:50:01.942Z,9.30
2022-09-28T01:52:35.195Z,8.32
2022-09-28T01:55:10.475Z,9.70
2022-09-28T01:57:43.315Z,8.75
2022-09-28T02:00:24.340Z,8.85
2022-09-28T02:02:59.453Z,9.15
2022-09-28T02:05:32.996Z,9.23
2022-09-28T02:08:08.765Z,8.07
2022-09-28T02:10:42.219Z,8.70
2022-09-28T02:13:14.297Z,9.13
2022-09-28T02:15:51.001Z,8.95
2022-09-28T02:18:17.905Z,8.45
2022-09-28T02:20:50.525Z,8.32
2022-09-28T02:23:18.914Z,8.20
2022-09-28T02:25:54.838Z,7.80
2022-09-28T02:28:24.745Z,8.80
2022-09-28T02:30:51.767Z,8.82
2022-09-28T02:33:25.832Z,8.82
2022-09-28T02:36:02.041Z,8.93
2022-09-28T02:38:28.797Z,9.40
2022-09-28T02:41:04.124Z,9.63
2022-09-28T02:43:44.945Z,9.27
2022-09-28T02:46:24.789Z,10.15
2022-09-28T02:49:20.739Z,9.25
2022-09-28T02:52:08.691Z,9.68
2022-09-28T02:55:03.635Z,10.20
2022-09-28T02:58:10.954Z,10.48
2022-09-28T03:00:50.413Z,10.35
2022-09-28T03:03:29.338Z,10.55
2022-09-28T03:06:02.289Z,10.05
2022-09-28T03:08:35.886Z,10.27
2022-09-28T03:11:08.446Z,10.65
2022-09-28T03:13:36.563Z,9.85
2022-09-28T03:16:11.101Z,10.52
2022-09-28T03:18:38.420Z,9.93
2022-09-28T03:21:10.892Z,10.27
2022-09-28T03:23:44.009Z,10.45
2022-09-28T03:26:11.862Z,10.60
2022-09-28T03:28:41.121Z,10.43
2022-09-28T03:31:09.565Z,10.68
2022-09-28T03:33:39.594Z,9.98
2022-09-28T03:36:08.580Z,10.55
2022-09-28T03:38:37.827Z,9.35
2022-09-28T03:41:04.838Z,10.38
2022-09-28T03:43:34.350Z,11.40
2022-09-28T03:46:02.615Z,11.23
2022-09-28T03:48:33.161Z,10.73
2022-09-28T03:51:03.978Z,11.17
2022-09-28T03:53:31.181Z,12.00
2022-09-28T03:56:11.925Z,11.90
2022-09-28T03:58:44.988Z,11.93
2022-09-28T04:01:17.229Z,11.75
2022-09-28T04:03:46.802Z,11.77
2022-09-28T04:06:26.000Z,11.60
2022-09-28T04:08:57.417Z,11.48
2022-09-28T04:13:56.315Z,11.40
2022-09-28T04:16:25.105Z,11.32
2022-09-28T04:18:53.837Z,12.10
2022-09-28T04:21:29.470Z,11.95
2022-09-28T04:24:03.575Z,11.80
2022-09-28T04:26:36.229Z,11.70
2022-09-28T04:29:10.765Z,11.20
2022-09-28T04:31:51.512Z,11.55
2022-09-28T04:34:31.850Z,10.70
2022-09-28T04:37:10.674Z,11.60
2022-09-28T04:39:51.060Z,11.80
2022-09-28T04:42:27.752Z,12.80
2022-09-28T04:44:57.731Z,11.38
2022-09-28T04:47:33.633Z,11.93
2022-09-28T04:50:17.471Z,10.57
2022-09-28T04:52:53.945Z,11.95
2022-09-28T04:55:28.292Z,11.55
2022-09-28T04:57:56.948Z,11.43
2022-09-28T05:00:57.740Z,11.90
2022-09-28T05:07:01.070Z,11.93
2022-09-28T05:13:30.806Z,12.07
2022-09-28T05:16:42.643Z,12.50
2022-09-28T05:22:36.864Z,12.40
2022-09-28T05:26:33.502Z,10.90
2022-09-28T05:28:42.578Z,11.48
2022-09-28T05:31:24.728Z,11.27
2022-09-28T05:34:15.968Z,10.68
2022-09-28T05:37:15.186Z,11.93
2022-09-28T05:39:55.123Z,11.55
2022-09-28T05:43:02.888Z,10.95
2022-09-28T05:45:39.700Z,11.50
2022-09-28T05:48:17.371Z,11.52
2022-09-28T05:53:45.878Z,11.52
2022-09-28T05:56:24.752Z,11.55
2022-09-28T05:59:02.304Z,11.48
2022-09-28T06:01:32.527Z,11.90
2022-09-28T06:04:04.628Z,10.50
2022-09-28T06:06:31.728Z,12.00
2022-09-28T06:09:05.480Z,11.30
2022-09-28T06:11:33.145Z,10.90
2022-09-28T06:14:11.293Z,11.77
2022-09-28T06:16:50.408Z,10.75
2022-09-28T06:19:18.870Z,11.07
2022-09-28T06:21:52.561Z,11.77
2022-09-28T06:24:42.876Z,11.50
2022-09-28T06:27:12.748Z,11.63
2022-09-28T06:29:43.041Z,10.88
2022-09-28T06:32:21.892Z,12.18
2022-09-28T06:34:56.717Z,11.35
2022-09-28T06:37:29.987Z,11.25
2022-09-28T06:39:56.758Z,11.52
2022-09-28T06:42:33.668Z,12.05
2022-09-28T06:45:10.228Z,11.02
2022-09-28T06:47:39.630Z,11.25
2022-09-28T06:50:29.270Z,11.77
2022-09-28T06:53:05.269Z,11.20
2022-09-28T06:55:43.301Z,12.27
2022-09-28T06:58:17.852Z,11.88
2022-09-28T07:01:02.045Z,13.00
2022-09-28T07:09:24.339Z,12.55
2022-09-28T07:11:55.725Z,12.48
2022-09-28T07:14:47.369Z,13.05
2022-09-28T07:17:23.493Z,13.48
2022-09-28T07:19:54.966Z,13.98
2022-09-28T07:25:20.116Z,14.10
2022-09-28T07:27:48.950Z,12.55
2022-09-28T07:33:19.495Z,13.50
2022-09-28T07:35:56.333Z,12.77
2022-09-28T07:38:43.835Z,13.23
2022-09-28T07:41:20.300Z,12.90
2022-09-28T07:44:04.169Z,13.65
2022-09-28T07:46:50.110Z,12.32
2022-09-28T07:49:19.004Z,13.27
2022-09-28T07:51:54.259Z,13.02
2022-09-28T07:54:23.528Z,12.73
2022-09-28T07:57:06.028Z,13.07
2022-09-28T08:02:36.215Z,11.63
2022-09-28T08:05:19.533Z,11.70
2022-09-28T08:07:55.253Z,9.93
2022-09-28T08:10:42.407Z,8.18
2022-09-28T08:13:23.515Z,7.72
2022-09-28T08:16:03.676Z,6.90
2022-09-28T08:18:33.044Z,6.50
2022-09-28T08:21:15.188Z,6.00
2022-09-28T08:23:47.796Z,6.63
2022-09-28T08:26:20.123Z,6.35
2022-09-28T08:28:51.591Z,6.47
2022-09-28T08:33:49.736Z,4.60
2022-09-28T08:36:27.793Z,4.93
2022-09-28T08:42:09.001Z,4.55
2022-09-28T08:45:02.086Z,4.50
2022-09-28T08:47:48.560Z,5.03
2022-09-28T08:50:35.848Z,4.68
2022-09-28T08:53:18.361Z,3.90
2022-09-28T08:55:51.382Z,3.72
2022-09-28T08:58:38.554Z,3.20
2022-09-28T09:01:19.398Z,3.28
2022-09-28T09:04:04.124Z,2.97
2022-09-28T09:06:46.629Z,1.10
2022-09-28T09:09:33.704Z,2.00
2022-09-28T09:12:17.389Z,2.00
2022-09-28T09:15:22.119Z,1.50
2022-09-28T09:18:19.758Z,1.63
2022-09-28T09:21:17.048Z,0.80
2022-09-28T09:24:00.584Z,0.50
2022-09-28T09:26:39.310Z,0.30
2022-09-28T09:29:30.451Z,0.50
2022-09-28T09:32:19.870Z,0.43
2022-09-28T09:35:29.260Z,0.30
2022-09-28T09:38:13.154Z,0.40
2022-09-28T09:40:55.894Z,0.28
2022-09-28T09:43:50.600Z,0.77
2022-09-28T09:46:27.060Z,0.32
2022-09-28T09:49:08.163Z,0.38
2022-09-28T09:51:45.966Z,0.10
2022-09-28T09:54:29.744Z,0.10
2022-09-28T09:57:06.406Z,0.20
2022-09-28T09:59:39.928Z,0.20
2022-09-28T10:02:22.515Z,0.17
2022-09-28T10:04:52.399Z,0.20
2022-09-28T10:07:30.760Z,0.10
2022-09-28T10:10:11.579Z,0.20
2022-09-28T10:12:44.020Z,0.15
2022-09-28T10:15:19.746Z,0.10
2022-09-28T10:17:48.429Z,0.20
2022-09-28T10:20:29.003Z,0.20
2022-09-28T10:23:03.315Z,0.20
2022-09-28T10:25:34.188Z,0.30
2022-09-28T10:31:36.603Z,0.10
2022-09-28T10:34:11.749Z,0.20
2022-09-28T10:36:52.327Z,0.03
2022-09-28T10:39:34.394Z,0.20
2022-09-28T10:42:28.922Z,0.20
2022-09-28T10:45:19.402Z,0.17
2022-09-28T10:47:53.990Z,0.38
2022-09-28T10:50:23.614Z,2.17
2022-09-28T10:52:50.307Z,1.30
2022-09-28T10:55:36.855Z,0.30
2022-09-28T10:58:27.538Z,0.20
2022-09-28T11:01:25.701Z,0.20
2022-09-28T11:04:06.615Z,0.10
2022-09-28T11:06:42.357Z,0.10
2022-09-28T11:09:29.765Z,0.20
2022-09-28T11:12:03.583Z,0.15
2022-09-28T11:14:42.948Z,0.10
2022-09-28T11:17:17.646Z,0.03
2022-09-28T11:19:54.689Z,0.20
2022-09-28T11:22:28.416Z,0.40
2022-09-28T11:25:16.438Z,0.20
2022-09-28T11:27:58.969Z,0.10
2022-09-28T11:30:32.717Z,0.20
2022-09-28T11:33:19.092Z,0.10
2022-09-28T11:36:02.373Z,0.10
2022-09-28T11:38:39.618Z,0.10
2022-09-28T11:41:25.639Z,0.17
2022-09-28T11:44:22.873Z,0.20
2022-09-28T11:47:02.268Z,0.10
2022-09-28T11:49:39.085Z,0.10
2022-09-28T11:52:16.707Z,0.17
2022-09-28T11:54:49.012Z,0.30
2022-09-28T11:57:22.463Z,0.30
2022-09-28T12:03:20.792Z,0.20
2022-09-28T12:06:00.177Z,0.10
2022-09-28T12:08:34.766Z,0.10
2022-09-28T12:11:05.643Z,0.20
2022-09-28T12:13:37.593Z,0.10
2022-09-28T12:19:02.910Z,0.13
2022-09-28T12:21:39.177Z,0.20
2022-09-28T12:24:20.301Z,0.10
2022-09-28T12:26:56.617Z,0.17
2022-09-28T12:29:37.884Z,0.20
2022-09-28T12:32:21.752Z,0.10
2022-09-28T12:34:58.920Z,0.10
2022-09-28T12:38:09.981Z,0.20
2022-09-28T12:40:42.286Z,0.20
2022-09-28T12:43:27.982Z,0.20
2022-09-28T12:46:17.325Z,0.20
2022-09-28T12:52:10.047Z,0.10
2022-09-28T12:58:03.502Z,0.35
2022-09-28T13:00:41.350Z,0.30
2022-09-28T13:03:38.334Z,0.40
2022-09-28T13:06:37.665Z,0.10
2022-09-28T13:09:34.562Z,0.30
2022-09-28T13:12:35.512Z,0.10
2022-09-28T13:15:29.711Z,0.13
2022-09-28T13:18:13.361Z,0.10
2022-09-28T13:20:59.479Z,0.30
2022-09-28T13:23:40.223Z,0.10
2022-09-28T13:26:24.560Z,0.50
2022-09-28T13:28:58.455Z,0.10
2022-09-28T13:31:31.800Z,0.10
2022-09-28T13:34:03.030Z,0.17
2022-09-28T13:36:42.495Z,0.10
2022-09-28T13:42:02.655Z,0.10
2022-09-28T13:47:34.464Z,0.30
2022-09-28T13:50:23.692Z,0.20
2022-09-28T13:53:07.762Z,0.20
2022-09-28T13:55:51.342Z,0.10
2022-09-28T13:58:34.933Z,0.20
2022-09-28T14:01:09.541Z,0.13
2022-09-28T14:03:58.865Z,0.50
2022-09-28T14:06:30.708Z,0.40
2022-09-28T14:09:38.685Z,0.25
2022-09-28T14:12:45.467Z,0.20
2022-09-28T14:15:59.572Z,1.70
2022-09-28T14:22:06.595Z,0.40
2022-09-28T14:25:22.743Z,0.30
2022-09-28T14:28:37.906Z,0.30
2022-09-28T14:31:29.118Z,0.52
2022-09-28T14:34:31.643Z,0.30
2022-09-28T14:37:20.201Z,0.68
2022-09-28T14:40:04.181Z,0.68
2022-09-28T14:42:41.663Z,0.30
2022-09-28T14:45:43.601Z,0.20
2022-09-28T14:52:02.251Z,0.57
2022-09-28T14:54:39.936Z,0.57
2022-09-28T14:57:20.972Z,0.40
2022-09-28T15:00:17.669Z,0.40
2022-09-28T15:02:56.244Z,0.30
2022-09-28T15:06:11.666Z,0.50
2022-09-28T15:09:01.474Z,0.50
2022-09-28T15:14:44.971Z,0.30
2022-09-28T15:17:24.321Z,0.20
2022-09-28T15:20:31.354Z,0.30
2022-09-28T15:23:02.008Z,0.50
2022-09-28T15:26:03.578Z,0.40
2022-09-28T15:28:57.748Z,0.55
2022-09-28T15:31:41.233Z,0.15
2022-09-28T15:37:39.631Z,0.20
2022-09-28T15:40:32.509Z,0.50
2022-09-28T15:43:38.767Z,0.10
2022-09-28T15:46:27.322Z,0.20
2022-09-28T15:49:10.375Z,0.20
2022-09-28T15:52:05.175Z,0.10
2022-09-28T15:54:45.243Z,0.15
2022-09-28T15:57:40.180Z,0.40
2022-09-28T16:03:42.238Z,0.40
2022-09-28T16:10:02.828Z,0.45
2022-09-28T16:12:50.540Z,0.40
2022-09-28T16:15:29.045Z,0.40
2022-09-28T16:18:04.466Z,0.50
2022-09-28T16:21:24.743Z,1.15
2022-09-28T16:24:06.009Z,0.45
2022-09-28T16:26:43.763Z,0.47
2022-09-28T16:33:02.251Z,0.77
2022-09-28T16:35:34.669Z,0.80
2022-09-28T16:38:31.172Z,0.90
2022-09-28T16:41:08.767Z,0.88
2022-09-28T16:43:47.543Z,0.85
2022-09-28T16:46:28.325Z,1.23
2022-09-28T16:49:24.678Z,1.60
2022-09-28T16:51:58.124Z,0.90
2022-09-28T16:54:50.620Z,1.00
2022-09-28T16:57:25.047Z,0.68
2022-09-28T17:00:00.651Z,1.27
2022-09-28T17:02:46.148Z,3.10
2022-09-28T17:05:39.912Z,1.00
2022-09-28T17:08:20.325Z,1.30
2022-09-28T17:11:27.080Z,1.20
2022-09-28T17:14:13.770Z,1.10
2022-09-28T17:19:49.903Z,0.70
2022-09-28T17:22:34.090Z,0.85
2022-09-28T17:25:51.558Z,0.90
2022-09-28T17:28:27.168Z,1.20
2022-09-28T17:31:18.402Z,2.92
2022-09-28T17:34:31.362Z,2.78
2022-09-28T17:37:14.030Z,1.80
2022-09-28T17:40:37.203Z,0.98
2022-09-28T17:44:03.312Z,0.82
2022-09-28T17:49:39.268Z,0.85
2022-09-28T17:52:38.988Z,0.73
2022-09-28T17:55:17.726Z,0.70
2022-09-28T17:57:44.596Z,1.10
2022-09-28T18:06:49.154Z,0.57
2022-09-28T18:10:11.478Z,0.75
2022-09-28T18:13:10.235Z,0.82
2022-09-28T18:15:54.444Z,1.15
2022-09-28T18:18:43.332Z,1.58
2022-09-28T18:24:38.958Z,2.42
2022-09-28T18:27:37.945Z,2.50
2022-09-28T18:30:46.033Z,2.47
2022-09-28T18:33:22.002Z,2.83
2022-09-28T18:36:09.697Z,3.40
2022-09-28T18:39:06.419Z,4.43
2022-09-28T18:48:12.223Z,9.90
2022-09-28T18:54:11.255Z,3.40
2022-09-28T18:56:40.505Z,3.00
2022-09-28T19:02:25.546Z,52.20
2022-09-28T19:08:18.055Z,38.55
2022-09-28T19:14:11.473Z,4.50
2022-09-28T19:37:43.502Z,3.78
2022-09-28T19:44:10.395Z,2.55
2022-09-28T20:00:49.490Z,3.60
2022-09-28T20:03:18.956Z,3.83
2022-09-28T20:05:56.553Z,5.85
2022-09-28T20:08:23.816Z,4.85
2022-09-28T20:10:56.380Z,5.45
2022-09-28T20:13:32.622Z,5.75
2022-09-28T20:16:08.268Z,5.10
2022-09-28T20:18:37.947Z,4.65
2022-09-28T20:21:07.023Z,5.20
2022-09-28T20:23:34.045Z,4.95
2022-09-28T20:26:03.047Z,5.03
2022-09-28T20:28:35.494Z,4.97
2022-09-28T20:31:06.721Z,4.55
2022-09-28T20:33:35.231Z,5.00
2022-09-28T20:36:06.169Z,6.45
2022-09-28T20:38:33.119Z,5.88
2022-09-28T20:41:00.326Z,4.55
2022-09-28T20:43:37.412Z,5.43
2022-09-28T20:46:09.529Z,5.70
2022-09-28T20:48:38.211Z,12.27
2022-09-28T20:51:09.769Z,21.08
2022-09-28T20:53:37.335Z,13.70
2022-09-28T20:56:08.244Z,5.35
2022-09-28T20:58:40.902Z,4.15
2022-09-28T21:01:14.678Z,4.50
2022-09-28T21:03:45.571Z,8.13
2022-09-28T21:06:20.723Z,7.07
2022-09-28T21:08:54.563Z,5.35
2022-09-28T21:11:26.294Z,4.85
2022-09-28T21:13:59.467Z,4.47
2022-09-28T21:16:42.501Z,4.30
2022-09-28T21:19:13.330Z,3.63
2022-09-28T21:21:48.153Z,3.30
2022-09-28T21:24:20.697Z,3.55
2022-09-28T21:26:47.732Z,4.28
2022-09-28T21:29:19.967Z,4.43
2022-09-28T21:31:51.643Z,5.15
2022-09-28T21:34:20.734Z,10.52
2022-09-28T21:36:51.269Z,6.35
2022-09-28T21:39:19.208Z,4.73
2022-09-28T21:41:49.335Z,4.10
2022-09-28T21:44:17.923Z,3.95
2022-09-28T21:46:44.916Z,3.92
2022-09-28T21:49:14.625Z,4.20
2022-09-28T21:51:41.428Z,4.65
2022-09-28T21:54:16.043Z,3.72
2022-09-28T21:59:59.467Z,4.07
2022-09-28T22:02:43.576Z,43.58
2022-09-28T22:07:54.082Z,4.88
2022-09-28T22:10:20.806Z,5.72
2022-09-28T22:12:49.108Z,5.03
2022-09-28T22:15:15.991Z,4.25
2022-09-28T22:17:43.117Z,4.05
2022-09-28T22:20:10.064Z,3.88
2022-09-28T22:22:38.129Z,5.10
2022-09-28T22:25:05.728Z,7.90
2022-09-28T22:27:32.380Z,22.90
2022-09-28T22:29:59.235Z,21.10
2022-09-28T22:32:26.229Z,40.75
2022-09-28T22:34:53.061Z,43.70
2022-09-28T22:37:22.780Z,24.58
2022-09-28T22:39:51.138Z,11.88
2022-09-28T22:42:17.787Z,14.38
2022-09-28T22:44:44.698Z,8.05
2022-09-28T22:47:11.421Z,4.95
2022-09-28T22:49:38.095Z,4.50
2022-09-28T22:52:05.150Z,3.90
2022-09-28T22:54:32.650Z,4.22
2022-09-28T22:57:00.831Z,4.43
2022-09-28T22:59:27.492Z,3.67
2022-09-28T23:01:54.396Z,3.17
2022-09-28T23:04:21.050Z,3.17
2022-09-28T23:06:47.690Z,3.28
2022-09-28T23:09:14.949Z,3.17
2022-09-28T23:11:42.630Z,3.20
2022-09-28T23:14:12.108Z,3.78
2022-09-28T23:16:40.787Z,3.30
2022-09-28T23:19:07.454Z,3.38
2022-09-28T23:21:34.156Z,3.50
2022-09-28T23:24:01.739Z,3.40
2022-09-28T23:26:30.588Z,3.72
2022-09-28T23:28:58.299Z,3.33
2022-09-28T23:31:28.854Z,3.67
2022-09-28T23:33:59.649Z,3.40
2022-09-28T23:36:26.824Z,3.95
2022-09-28T23:38:54.063Z,3.83
2022-09-28T23:41:21.638Z,4.25
2022-09-28T23:43:48.400Z,3.72
2022-09-28T23:46:20.955Z,3.72
2022-09-28T23:48:50.796Z,4.00
2022-09-28T23:51:17.769Z,3.58
2022-09-28T23:53:44.920Z,3.58
2022-09-28T23:56:11.558Z,3.83
2022-09-28T23:58:39.454Z,4.00
